Updated17/02/2019 22:45 
 

GeoURL
free counters
Scottish Weather Network UK Weather Network Cumulus Top Weather Sites

Peebles Weather - Global Earthquakes

Raw Data, Raw Data Expanded

Ignore low humidity and Dew Point values. Something wrong with the sensor.
Daytime temperatures are in direct sunlight so may be higher than official air temperature values.
As with any other website, we log your IP address and browser type in the server logs for diagnostic reasons. Cookies are used to record visit time and gauges preferences. No personal information is stored or processed.

All times are in local time (GMT, or BST in summer) unless specified.

2019/02/17 22:20 EGPH 172220Z 21020KT 9000 -RA FEW011 BKN022 09/06 Q1003
8.5°C 0.6 mm 1.5 mm 1.5 mm 14.0 mph 19.0 mph 999.7 hPa 77% X-Ray Solar Flare Level
Planetary K-Index
Planetary K-Index History
Station Warn Rain Snow Flood Wind Ltng Heat Cold Glob Moon Temp Rain 1h Rain Sun Rain 24h Wind 10m Gust Pressure Hum Proton Levels

0.408 m Waxing Gibbous Cold F4-S F: A: Kp:0 SSN:0

Recent Earthquakes

Show only: 5.5+ | 6.0+ | 7.0+ | Default (4+)

No earthquakes of magnitude 2.0 or greater within 200 mi reported in last 7 days.

Map and data courtesy of United States Geological Survey.

Tsunami Information
Tafoni Recent Earthquake Map

 

XHTML 1.1 | CSS